createdAt,value
2017-08-08T00:00:05.994Z,0
2017-08-08T00:01:07.419Z,0
2017-08-08T00:02:08.795Z,0
2017-08-08T00:03:10.195Z,0
2017-08-08T00:04:11.573Z,0
2017-08-08T00:05:12.976Z,0
2017-08-08T00:06:14.355Z,0
2017-08-08T00:07:15.755Z,0
2017-08-08T00:08:17.135Z,0
2017-08-08T00:09:18.550Z,0
2017-08-08T00:10:19.924Z,0
2017-08-08T00:11:21.804Z,0
2017-08-08T00:12:23.178Z,0
2017-08-08T00:13:24.602Z,0
2017-08-08T00:14:26.019Z,0
2017-08-08T00:15:27.493Z,0
2017-08-08T00:16:28.864Z,0
2017-08-08T00:17:30.649Z,0
2017-08-08T00:18:32.036Z,0
2017-08-08T00:19:33.459Z,0
2017-08-08T00:20:34.840Z,0
2017-08-08T00:21:36.240Z,0
2017-08-08T00:22:37.997Z,0
2017-08-08T00:23:39.430Z,0
2017-08-08T00:24:40.805Z,0
2017-08-08T00:25:42.206Z,0
2017-08-08T00:26:43.965Z,0
2017-08-08T00:27:45.395Z,0
2017-08-08T00:28:46.782Z,0
2017-08-08T00:29:48.183Z,0
2017-08-08T00:30:49.558Z,0
2017-08-08T00:31:50.968Z,0
2017-08-08T00:32:52.333Z,0
2017-08-08T00:33:53.733Z,0
2017-08-08T00:34:55.115Z,0
2017-08-08T00:35:56.889Z,0
2017-08-08T00:36:58.268Z,0
2017-08-08T00:38:00.080Z,0
2017-08-08T00:39:01.460Z,0
2017-08-08T00:40:02.890Z,0
2017-08-08T00:41:04.272Z,0
2017-08-08T00:42:05.672Z,0
2017-08-08T00:43:07.050Z,0
2017-08-08T00:44:08.452Z,0
2017-08-08T00:45:10.206Z,0
2017-08-08T00:46:11.642Z,0
2017-08-08T00:47:13.021Z,0
2017-08-08T00:48:14.798Z,0
2017-08-08T00:49:16.178Z,0
2017-08-08T00:50:17.609Z,0
2017-08-08T00:51:18.989Z,0
2017-08-08T00:52:20.387Z,0
2017-08-08T00:53:21.765Z,0
2017-08-08T00:54:23.169Z,0
2017-08-08T00:55:24.550Z,0
2017-08-08T00:56:25.949Z,0
2017-08-08T00:57:27.330Z,0
2017-08-08T00:58:28.736Z,0
2017-08-08T00:59:30.109Z,0
2017-08-08T01:00:31.888Z,0
2017-08-08T01:01:33.268Z,0
2017-08-08T01:02:34.725Z,0
2017-08-08T01:03:36.106Z,0
2017-08-08T01:04:37.578Z,0
2017-08-08T01:05:38.955Z,0
2017-08-08T01:06:40.362Z,0
2017-08-08T01:07:41.740Z,0
2017-08-08T01:08:43.142Z,0
2017-08-08T01:09:44.517Z,0
2017-08-08T01:10:45.922Z,0
2017-08-08T01:11:47.295Z,0
2017-08-08T01:12:48.698Z,0
2017-08-08T01:13:50.073Z,0
2017-08-08T01:14:51.478Z,0
2017-08-08T01:15:52.864Z,0
2017-08-08T01:16:54.256Z,0
2017-08-08T01:17:55.635Z,0
2017-08-08T01:18:57.035Z,0
2017-08-08T01:19:58.413Z,0
2017-08-08T01:20:59.819Z,0
2017-08-08T01:22:01.202Z,0
2017-08-08T01:23:02.596Z,0
2017-08-08T01:24:04.357Z,0
2017-08-08T01:25:05.784Z,0
2017-08-08T01:26:07.542Z,0
2017-08-08T01:27:08.973Z,0
2017-08-08T01:28:10.725Z,0
2017-08-08T01:29:12.164Z,0
2017-08-08T01:30:13.561Z,0
2017-08-08T01:31:14.943Z,0
2017-08-08T01:32:16.333Z,0
2017-08-08T01:33:18.747Z,0
2017-08-08T01:34:20.502Z,0
2017-08-08T01:35:21.937Z,0
2017-08-08T01:36:23.310Z,0
2017-08-08T01:37:24.715Z,0
2017-08-08T01:38:26.101Z,0
2017-08-08T01:39:27.495Z,0
2017-08-08T01:40:29.270Z,0
2017-08-08T01:41:30.684Z,0
2017-08-08T01:42:32.067Z,0
2017-08-08T01:43:33.464Z,0
2017-08-08T01:44:35.225Z,0
2017-08-08T01:45:36.653Z,0
2017-08-08T01:46:38.041Z,0
2017-08-08T01:47:39.431Z,0
2017-08-08T01:48:40.812Z,0
2017-08-08T01:49:42.217Z,0
2017-08-08T01:50:43.590Z,0
2017-08-08T01:51:44.994Z,0
2017-08-08T01:52:46.375Z,0
2017-08-08T01:53:47.773Z,0
2017-08-08T01:54:49.151Z,0
2017-08-08T01:55:50.553Z,0
2017-08-08T01:56:51.932Z,0
2017-08-08T01:57:53.336Z,0
2017-08-08T01:58:54.711Z,0
2017-08-08T01:59:56.119Z,0
2017-08-08T02:00:57.498Z,0
2017-08-08T02:01:58.893Z,0
2017-08-08T02:03:00.266Z,0
2017-08-08T02:04:01.667Z,0
2017-08-08T02:05:03.046Z,0
2017-08-08T02:06:04.827Z,0
2017-08-08T02:07:06.582Z,0
2017-08-08T02:08:08.049Z,0
2017-08-08T02:09:09.427Z,0
2017-08-08T02:10:10.824Z,0
2017-08-08T02:11:12.152Z,0
2017-08-08T02:12:13.610Z,0
2017-08-08T02:13:14.988Z,0
2017-08-08T02:14:16.413Z,0
2017-08-08T02:15:17.794Z,0
2017-08-08T02:16:19.272Z,0
2017-08-08T02:17:20.648Z,0
2017-08-08T02:18:22.050Z,0
2017-08-08T02:19:23.431Z,0
2017-08-08T02:20:24.832Z,0
2017-08-08T02:21:26.209Z,0
2017-08-08T02:22:27.608Z,0
2017-08-08T02:23:28.990Z,0
2017-08-08T02:24:30.391Z,0
2017-08-08T02:25:31.771Z,0
2017-08-08T02:26:33.171Z,0
2017-08-08T02:27:34.547Z,0
2017-08-08T02:28:35.948Z,0
2017-08-08T02:29:37.329Z,0
2017-08-08T02:30:38.728Z,0
2017-08-08T02:31:40.106Z,0
2017-08-08T02:32:41.512Z,0
2017-08-08T02:33:42.886Z,0
2017-08-08T02:34:44.295Z,0
2017-08-08T02:35:45.669Z,0
2017-08-08T02:36:47.086Z,0
2017-08-08T02:37:48.441Z,0
2017-08-08T02:38:49.848Z,0
2017-08-08T02:39:51.232Z,0
2017-08-08T02:40:52.628Z,0
2017-08-08T02:41:54.010Z,0
2017-08-08T02:42:55.408Z,0
2017-08-08T02:43:56.787Z,0
2017-08-08T02:44:58.188Z,0
2017-08-08T02:45:59.560Z,0
2017-08-08T02:47:00.962Z,0
2017-08-08T02:48:02.343Z,0
2017-08-08T02:49:03.743Z,0
2017-08-08T02:50:05.508Z,0
2017-08-08T02:51:06.933Z,0
2017-08-08T02:52:08.314Z,0
2017-08-08T02:53:09.711Z,0
2017-08-08T02:54:11.091Z,0
2017-08-08T02:55:12.882Z,0
2017-08-08T02:56:14.258Z,0
2017-08-08T02:57:15.685Z,0
2017-08-08T02:58:17.059Z,0
2017-08-08T02:59:18.463Z,0
2017-08-08T03:00:19.839Z,0
2017-08-08T03:01:21.632Z,0
2017-08-08T03:02:23.001Z,0
2017-08-08T03:03:24.430Z,0
2017-08-08T03:04:25.808Z,0
2017-08-08T03:05:27.204Z,0
2017-08-08T03:06:28.587Z,0
2017-08-08T03:07:29.992Z,0
2017-08-08T03:08:31.371Z,0
2017-08-08T03:09:32.773Z,0
2017-08-08T03:10:34.147Z,0
2017-08-08T03:11:35.552Z,0
2017-08-08T03:12:36.956Z,0
2017-08-08T03:13:38.482Z,0
2017-08-08T03:14:39.853Z,0
2017-08-08T03:15:41.328Z,0
2017-08-08T03:16:42.692Z,0
2017-08-08T03:17:44.096Z,0
2017-08-08T03:18:45.470Z,0
2017-08-08T03:19:46.878Z,0
2017-08-08T03:20:48.252Z,0
2017-08-08T03:21:49.652Z,0
2017-08-08T03:22:51.032Z,0
2017-08-08T03:23:52.432Z,0
2017-08-08T03:24:53.811Z,0
2017-08-08T03:25:55.214Z,0
2017-08-08T03:26:56.592Z,0
2017-08-08T03:27:57.997Z,0
2017-08-08T03:28:59.371Z,0
2017-08-08T03:30:00.778Z,4
2017-08-08T03:31:02.159Z,4
2017-08-08T03:32:03.554Z,4
2017-08-08T03:33:04.921Z,0
2017-08-08T03:34:06.330Z,4
2017-08-08T03:35:07.727Z,4
2017-08-08T03:36:09.110Z,8
2017-08-08T03:37:10.486Z,4
2017-08-08T03:38:11.890Z,8
2017-08-08T03:39:13.268Z,8
2017-08-08T03:40:14.674Z,12
2017-08-08T03:41:16.042Z,12
2017-08-08T03:42:17.451Z,12
2017-08-08T03:43:18.827Z,20
2017-08-08T03:44:20.229Z,20
2017-08-08T03:45:21.604Z,24
2017-08-08T03:46:23.009Z,28
2017-08-08T03:47:24.389Z,32
2017-08-08T03:48:25.790Z,36
2017-08-08T03:49:27.168Z,44
2017-08-08T03:50:28.568Z,48
2017-08-08T03:51:29.945Z,60
2017-08-08T03:52:31.354Z,68
2017-08-08T03:53:32.731Z,76
2017-08-08T03:54:34.126Z,88
2017-08-08T03:55:35.510Z,100
2017-08-08T03:56:36.905Z,116
2017-08-08T03:57:38.285Z,128
2017-08-08T03:58:39.687Z,144
2017-08-08T03:59:41.063Z,164
2017-08-08T04:00:42.473Z,180
2017-08-08T04:01:43.851Z,200
2017-08-08T04:02:45.246Z,228
2017-08-08T04:03:46.630Z,252
2017-08-08T04:04:48.027Z,288
2017-08-08T04:05:49.402Z,324
2017-08-08T04:06:50.809Z,360
2017-08-08T04:07:52.188Z,396
2017-08-08T04:08:53.585Z,428
2017-08-08T04:09:54.979Z,452
2017-08-08T04:10:56.367Z,484
2017-08-08T04:11:57.744Z,516
2017-08-08T04:12:59.145Z,552
2017-08-08T04:14:00.524Z,592
2017-08-08T04:15:01.924Z,648
2017-08-08T04:16:03.304Z,720
2017-08-08T04:17:04.704Z,800
2017-08-08T04:18:06.088Z,880
2017-08-08T04:19:07.486Z,948
2017-08-08T04:20:08.861Z,1008
2017-08-08T04:21:10.284Z,1060
2017-08-08T04:22:11.664Z,1100
2017-08-08T04:23:13.147Z,1128
2017-08-08T04:24:14.541Z,1148
2017-08-08T04:25:16.023Z,1168
2017-08-08T04:26:17.693Z,1200
2017-08-08T04:27:19.241Z,1252
2017-08-08T04:28:20.629Z,1316
2017-08-08T04:29:22.093Z,1388
2017-08-08T04:30:23.485Z,1468
2017-08-08T04:31:24.879Z,1544
2017-08-08T04:32:26.265Z,1608
2017-08-08T04:33:27.663Z,1672
2017-08-08T04:34:29.043Z,1736
2017-08-08T04:35:30.447Z,1796
2017-08-08T04:36:31.819Z,1848
2017-08-08T04:37:33.224Z,1884
2017-08-08T04:38:34.603Z,1920
2017-08-08T04:39:36.004Z,1980
2017-08-08T04:40:37.383Z,2064
2017-08-08T04:41:38.781Z,2144
2017-08-08T04:42:40.158Z,2232
2017-08-08T04:43:41.561Z,2320
2017-08-08T04:44:42.942Z,2420
2017-08-08T04:45:44.340Z,2528
2017-08-08T04:46:45.737Z,2656
2017-08-08T04:47:47.231Z,2784
2017-08-08T04:48:48.604Z,2892
2017-08-08T04:49:49.997Z,3000
2017-08-08T04:50:51.380Z,3108
2017-08-08T04:51:52.779Z,3220
2017-08-08T04:52:54.162Z,3308
2017-08-08T04:53:55.660Z,3388
2017-08-08T04:54:57.039Z,3448
2017-08-08T04:55:58.440Z,3536
2017-08-08T04:56:59.822Z,3640
2017-08-08T04:58:01.218Z,3756
2017-08-08T04:59:02.614Z,3888
2017-08-08T05:00:04.101Z,4036
2017-08-08T05:01:05.490Z,4208
2017-08-08T05:02:06.881Z,4396
2017-08-08T05:03:08.263Z,4604
2017-08-08T05:04:09.672Z,4836
2017-08-08T05:05:11.043Z,5128
2017-08-08T05:06:12.446Z,5480
2017-08-08T05:07:13.842Z,5768
2017-08-08T05:08:15.324Z,5964
2017-08-08T05:09:16.703Z,6244
2017-08-08T05:10:18.133Z,6616
2017-08-08T05:11:19.539Z,6916
2017-08-08T05:12:20.990Z,7148
2017-08-08T05:13:22.377Z,7404
2017-08-08T05:14:23.869Z,7648
2017-08-08T05:15:25.638Z,7800
2017-08-08T05:16:27.056Z,7916
2017-08-08T05:17:28.435Z,8000
2017-08-08T05:18:29.840Z,7968
2017-08-08T05:19:31.223Z,7996
2017-08-08T05:20:32.620Z,8284
2017-08-08T05:21:34.004Z,8716
2017-08-08T05:22:35.500Z,8808
2017-08-08T05:23:36.881Z,9064
2017-08-08T05:24:38.278Z,9204
2017-08-08T05:25:39.662Z,9316
2017-08-08T05:26:41.057Z,9648
2017-08-08T05:27:42.461Z,10100
2017-08-08T05:28:43.941Z,10368
2017-08-08T05:29:45.330Z,10564
2017-08-08T05:30:46.848Z,10748
2017-08-08T05:31:48.235Z,11016
2017-08-08T05:32:49.726Z,11932
2017-08-08T05:33:51.107Z,13068
2017-08-08T05:34:52.584Z,12960
2017-08-08T05:35:53.970Z,12876
2017-08-08T05:36:55.468Z,13512
2017-08-08T05:37:56.884Z,14048
2017-08-08T05:38:58.349Z,14568
2017-08-08T05:39:59.735Z,15040
2017-08-08T05:41:01.245Z,15452
2017-08-08T05:42:02.632Z,15892
2017-08-08T05:43:04.114Z,17472
2017-08-08T05:44:05.510Z,20608
2017-08-08T05:45:06.892Z,20864
2017-08-08T05:46:08.280Z,18240
2017-08-08T05:47:09.673Z,19744
2017-08-08T05:48:11.060Z,21440
2017-08-08T05:49:12.560Z,22432
2017-08-08T05:50:13.946Z,21184
2017-08-08T05:51:15.449Z,21184
2017-08-08T05:52:16.830Z,20896
2017-08-08T05:53:18.323Z,19456
2017-08-08T05:54:19.710Z,18880
2017-08-08T05:55:21.191Z,19136
2017-08-08T05:56:22.588Z,18976
2017-08-08T05:57:23.977Z,20160
2017-08-08T05:58:25.370Z,20288
2017-08-08T05:59:26.760Z,20544
2017-08-08T06:00:28.147Z,20384
2017-08-08T06:01:29.544Z,19680
2017-08-08T06:02:30.946Z,18368
2017-08-08T06:03:32.357Z,17376
2017-08-08T06:04:33.749Z,17184
2017-08-08T06:05:35.135Z,16800
2017-08-08T06:06:36.532Z,16572
2017-08-08T06:07:37.938Z,16284
2017-08-08T06:08:39.365Z,16188
2017-08-08T06:09:40.765Z,16960
2017-08-08T06:10:42.149Z,16928
2017-08-08T06:11:43.539Z,16444
2017-08-08T06:12:44.928Z,16316
2017-08-08T06:13:46.315Z,16492
2017-08-08T06:14:47.705Z,16680
2017-08-08T06:15:49.098Z,16860
2017-08-08T06:16:50.500Z,17312
2017-08-08T06:17:51.893Z,17632
2017-08-08T06:18:53.282Z,17920
2017-08-08T06:19:54.683Z,18272
2017-08-08T06:20:56.088Z,18656
2017-08-08T06:21:57.480Z,19072
2017-08-08T06:22:58.867Z,19520
2017-08-08T06:24:00.260Z,20000
2017-08-08T06:25:01.651Z,20288
2017-08-08T06:26:03.038Z,20576
2017-08-08T06:27:04.461Z,20864
2017-08-08T06:28:05.850Z,20960
2017-08-08T06:29:07.257Z,21280
2017-08-08T06:30:08.645Z,22080
2017-08-08T06:31:10.027Z,22464
2017-08-08T06:32:11.468Z,22880
2017-08-08T06:33:12.856Z,23936
2017-08-08T06:34:14.257Z,24416
2017-08-08T06:35:15.637Z,25280
2017-08-08T06:36:17.039Z,26784
2017-08-08T06:37:18.429Z,28960
2017-08-08T06:38:19.829Z,30368
2017-08-08T06:39:21.232Z,28384
2017-08-08T06:40:22.630Z,25888
2017-08-08T06:41:24.023Z,24512
2017-08-08T06:42:25.427Z,23360
2017-08-08T06:43:26.816Z,22432
2017-08-08T06:44:28.243Z,21376
2017-08-08T06:45:29.609Z,20192
2017-08-08T06:46:31.033Z,18848
2017-08-08T06:47:32.426Z,17888
2017-08-08T06:48:33.843Z,17376
2017-08-08T06:49:35.244Z,16944
2017-08-08T06:50:36.616Z,16792
2017-08-08T06:51:38.069Z,16740
2017-08-08T06:52:39.466Z,16752
2017-08-08T06:53:41.402Z,16756
2017-08-08T06:54:42.837Z,16632
2017-08-08T06:55:44.217Z,16368
2017-08-08T06:56:45.629Z,16016
2017-08-08T06:57:47.065Z,15648
2017-08-08T06:58:48.462Z,15344
2017-08-08T06:59:49.869Z,15140
2017-08-08T07:00:51.268Z,15004
2017-08-08T07:01:52.661Z,14920
2017-08-08T07:02:54.133Z,14896
2017-08-08T07:03:55.531Z,14856
2017-08-08T07:04:56.930Z,14848
2017-08-08T07:05:58.698Z,14796
2017-08-08T07:07:00.088Z,14764
2017-08-08T07:08:01.471Z,14648
2017-08-08T07:09:02.873Z,14656
2017-08-08T07:10:04.260Z,14652
2017-08-08T07:11:05.677Z,14704
2017-08-08T07:12:07.064Z,14716
2017-08-08T07:13:08.461Z,14556
2017-08-08T07:14:09.848Z,14424
2017-08-08T07:15:11.648Z,14312
2017-08-08T07:16:13.041Z,14224
2017-08-08T07:17:14.432Z,14156
2017-08-08T07:18:15.843Z,14048
2017-08-08T07:19:17.224Z,13880
2017-08-08T07:20:18.632Z,13572
2017-08-08T07:21:20.016Z,13184
2017-08-08T07:22:21.455Z,13080
2017-08-08T07:23:22.849Z,13120
2017-08-08T07:24:24.271Z,13388
2017-08-08T07:25:25.656Z,13976
2017-08-08T07:26:27.177Z,14648
2017-08-08T07:27:29.570Z,15348
2017-08-08T07:28:30.964Z,15948
2017-08-08T07:29:32.353Z,16600
2017-08-08T07:30:33.742Z,17408
2017-08-08T07:31:35.140Z,17920
2017-08-08T07:32:36.526Z,18528
2017-08-08T07:33:37.925Z,19168
2017-08-08T07:34:39.298Z,19968
2017-08-08T07:35:40.745Z,20704
2017-08-08T07:36:42.139Z,21504
2017-08-08T07:37:43.525Z,22080
2017-08-08T07:38:44.909Z,22624
2017-08-08T07:39:46.302Z,23232
2017-08-08T07:40:47.696Z,23776
2017-08-08T07:41:49.120Z,24320
2017-08-08T07:42:50.563Z,24800
2017-08-08T07:43:52.032Z,25248
2017-08-08T07:44:53.920Z,25600
2017-08-08T07:45:55.311Z,25952
2017-08-08T07:46:56.714Z,26336
2017-08-08T07:47:58.106Z,26656
2017-08-08T07:48:59.513Z,26848
2017-08-08T07:50:00.910Z,26976
2017-08-08T07:51:02.300Z,27200
2017-08-08T07:52:03.704Z,27360
2017-08-08T07:53:05.100Z,27424
2017-08-08T07:54:06.501Z,27392
2017-08-08T07:55:07.912Z,27296
2017-08-08T07:56:09.404Z,27232
2017-08-08T07:57:10.816Z,27168
2017-08-08T07:58:12.323Z,27104
2017-08-08T07:59:13.717Z,26912
2017-08-08T08:00:15.127Z,27008
2017-08-08T08:01:16.513Z,27328
2017-08-08T08:02:17.925Z,27584
2017-08-08T08:03:19.331Z,27776
2017-08-08T08:04:20.712Z,27968
2017-08-08T08:05:22.098Z,27680
2017-08-08T08:06:23.493Z,28384
2017-08-08T08:07:24.885Z,28768
2017-08-08T08:08:26.288Z,29248
2017-08-08T08:09:27.675Z,29408
2017-08-08T08:10:29.081Z,29632
2017-08-08T08:11:30.478Z,29920
2017-08-08T08:12:31.881Z,30304
2017-08-08T08:13:33.269Z,30496
2017-08-08T08:14:34.666Z,30208
2017-08-08T08:15:36.062Z,30688
2017-08-08T08:16:37.458Z,30816
2017-08-08T08:17:38.847Z,30848
2017-08-08T08:18:40.248Z,30752
2017-08-08T08:19:41.642Z,31040
2017-08-08T08:20:43.036Z,31296
2017-08-08T08:21:44.428Z,31680
2017-08-08T08:22:45.825Z,32064
2017-08-08T08:23:47.212Z,32544
2017-08-08T08:24:48.668Z,32864
2017-08-08T08:25:50.061Z,33152
2017-08-08T08:26:51.468Z,33344
2017-08-08T08:27:52.849Z,33504
2017-08-08T08:28:54.283Z,33504
2017-08-08T08:29:55.724Z,33088
2017-08-08T08:30:57.156Z,32704
2017-08-08T08:31:58.545Z,32256
2017-08-08T08:32:59.960Z,32160
2017-08-08T08:34:01.348Z,31936
2017-08-08T08:35:02.774Z,31456
2017-08-08T08:36:04.172Z,30624
2017-08-08T08:37:05.609Z,29952
2017-08-08T08:38:06.997Z,29408
2017-08-08T08:39:08.426Z,28800
2017-08-08T08:40:09.867Z,28448
2017-08-08T08:41:11.255Z,28224
2017-08-08T08:42:12.641Z,28096
2017-08-08T08:43:14.042Z,27936
2017-08-08T08:44:15.432Z,27712
2017-08-08T08:45:16.842Z,27456
2017-08-08T08:46:18.214Z,27168
2017-08-08T08:47:19.625Z,26912
2017-08-08T08:48:21.021Z,26784
2017-08-08T08:49:22.417Z,26784
2017-08-08T08:50:23.806Z,27040
2017-08-08T08:51:25.254Z,27392
2017-08-08T08:52:26.642Z,27616
2017-08-08T08:53:28.038Z,27552
2017-08-08T08:54:29.432Z,27296
2017-08-08T08:55:30.831Z,26848
2017-08-08T08:56:32.256Z,26368
2017-08-08T08:57:33.654Z,25888
2017-08-08T08:58:35.043Z,25440
2017-08-08T08:59:36.443Z,25024
2017-08-08T09:00:37.830Z,24672
2017-08-08T09:01:39.223Z,24352
2017-08-08T09:02:40.613Z,24096
2017-08-08T09:03:42.019Z,23872
2017-08-08T09:04:43.398Z,23744
2017-08-08T09:05:44.803Z,23552
2017-08-08T09:06:46.207Z,23264
2017-08-08T09:07:47.604Z,22912
2017-08-08T09:08:49.017Z,22464
2017-08-08T09:09:50.412Z,21984
2017-08-08T09:10:51.826Z,21600
2017-08-08T09:11:53.236Z,21344
2017-08-08T09:12:54.626Z,21120
2017-08-08T09:13:56.020Z,20960
2017-08-08T09:14:57.404Z,20864
2017-08-08T09:15:58.818Z,20992
2017-08-08T09:17:00.204Z,21536
2017-08-08T09:18:01.605Z,22624
2017-08-08T09:19:02.995Z,24128
2017-08-08T09:20:04.390Z,25888
2017-08-08T09:21:05.781Z,27744
2017-08-08T09:22:07.215Z,29344
2017-08-08T09:23:08.612Z,30624
2017-08-08T09:24:10.400Z,31456
2017-08-08T09:25:11.795Z,32032
2017-08-08T09:26:13.194Z,32320
2017-08-08T09:27:14.586Z,32288
2017-08-08T09:28:15.982Z,32064
2017-08-08T09:29:17.370Z,31424
2017-08-08T09:30:18.764Z,30592
2017-08-08T09:31:20.153Z,29696
2017-08-08T09:32:21.588Z,29056
2017-08-08T09:33:23.008Z,28480
2017-08-08T09:34:24.396Z,27840
2017-08-08T09:35:25.821Z,27104
2017-08-08T09:36:27.214Z,26240
2017-08-08T09:37:28.606Z,25248
2017-08-08T09:38:31.054Z,24160
2017-08-08T09:39:32.441Z,23040
2017-08-08T09:40:33.851Z,22176
2017-08-08T09:41:35.239Z,21408
2017-08-08T09:42:36.640Z,20768
2017-08-08T09:43:38.038Z,20224
2017-08-08T09:44:39.437Z,19712
2017-08-08T09:45:40.848Z,19264
2017-08-08T09:46:42.250Z,18944
2017-08-08T09:47:43.638Z,18720
2017-08-08T09:48:45.033Z,18656
2017-08-08T09:49:46.439Z,18432
2017-08-08T09:50:47.832Z,18080
2017-08-08T09:51:49.230Z,17760
2017-08-08T09:52:50.653Z,17728
2017-08-08T09:53:52.029Z,17952
2017-08-08T09:54:53.445Z,18464
2017-08-08T09:55:54.817Z,19008
2017-08-08T09:56:56.230Z,19392
2017-08-08T09:57:57.618Z,19648
2017-08-08T09:58:59.012Z,19776
2017-08-08T10:00:00.403Z,19776
2017-08-08T10:01:01.802Z,19712
2017-08-08T10:02:03.265Z,19648
2017-08-08T10:03:04.711Z,19552
2017-08-08T10:04:06.105Z,19424
2017-08-08T10:05:07.500Z,19360
2017-08-08T10:06:08.911Z,19488
2017-08-08T10:07:10.363Z,19808
2017-08-08T10:08:11.761Z,20352
2017-08-08T10:09:13.150Z,20992
2017-08-08T10:10:14.542Z,21632
2017-08-08T10:11:15.934Z,21952
2017-08-08T10:12:17.343Z,21984
2017-08-08T10:13:18.764Z,21824
2017-08-08T10:14:20.161Z,21472
2017-08-08T10:15:21.684Z,20928
2017-08-08T10:16:23.045Z,20416
2017-08-08T10:17:24.472Z,20032
2017-08-08T10:18:25.853Z,19840
2017-08-08T10:19:27.246Z,19936
2017-08-08T10:20:28.660Z,20384
2017-08-08T10:21:30.070Z,21312
2017-08-08T10:22:31.474Z,22560
2017-08-08T10:23:32.865Z,23840
2017-08-08T10:24:34.252Z,25088
2017-08-08T10:25:35.810Z,25920
2017-08-08T10:26:37.228Z,26272
2017-08-08T10:27:38.637Z,26304
2017-08-08T10:28:40.035Z,26048
2017-08-08T10:29:41.433Z,25920
2017-08-08T10:30:42.827Z,25760
2017-08-08T10:31:44.216Z,25472
2017-08-08T10:32:45.655Z,25056
2017-08-08T10:33:47.102Z,24640
2017-08-08T10:34:48.487Z,24288
2017-08-08T10:35:49.890Z,24064
2017-08-08T10:36:51.297Z,23840
2017-08-08T10:37:52.744Z,23488
2017-08-08T10:38:54.170Z,23040
2017-08-08T10:39:55.569Z,22336
2017-08-08T10:40:56.984Z,21440
2017-08-08T10:41:58.352Z,20640
2017-08-08T10:42:59.736Z,20064
2017-08-08T10:44:01.147Z,19648
2017-08-08T10:45:02.535Z,19200
2017-08-08T10:46:03.928Z,18592
2017-08-08T10:47:05.316Z,18080
2017-08-08T10:48:06.708Z,17472
2017-08-08T10:49:08.120Z,17004
2017-08-08T10:50:09.510Z,16896
2017-08-08T10:51:10.918Z,17536
2017-08-08T10:52:12.326Z,18368
2017-08-08T10:53:13.758Z,19968
2017-08-08T10:54:15.148Z,21952
2017-08-08T10:55:16.566Z,23584
2017-08-08T10:56:17.962Z,24160
2017-08-08T10:57:19.353Z,23488
2017-08-08T10:58:20.757Z,22560
2017-08-08T10:59:22.150Z,21728
2017-08-08T11:00:23.544Z,21408
2017-08-08T11:01:24.929Z,21536
2017-08-08T11:02:26.363Z,21344
2017-08-08T11:03:27.760Z,20512
2017-08-08T11:04:29.152Z,19200
2017-08-08T11:05:30.534Z,18016
2017-08-08T11:06:32.012Z,17088
2017-08-08T11:07:33.370Z,17116
2017-08-08T11:08:34.779Z,17920
2017-08-08T11:09:36.174Z,18688
2017-08-08T11:10:37.596Z,19200
2017-08-08T11:11:39.007Z,19648
2017-08-08T11:12:40.434Z,20000
2017-08-08T11:13:41.809Z,20000
2017-08-08T11:14:43.212Z,19680
2017-08-08T11:15:44.644Z,19264
2017-08-08T11:16:46.033Z,19200
2017-08-08T11:17:47.423Z,19328
2017-08-08T11:18:48.834Z,19488
2017-08-08T11:19:50.220Z,19712
2017-08-08T11:20:51.646Z,19712
2017-08-08T11:21:53.017Z,19424
2017-08-08T11:22:54.445Z,19072
2017-08-08T11:23:55.855Z,18816
2017-08-08T11:24:57.260Z,18720
2017-08-08T11:25:58.689Z,18880
2017-08-08T11:27:00.111Z,19264
2017-08-08T11:28:01.508Z,19584
2017-08-08T11:29:02.965Z,19776
2017-08-08T11:30:04.371Z,20064
2017-08-08T11:31:05.764Z,20256
2017-08-08T11:32:07.161Z,20256
2017-08-08T11:33:08.551Z,20128
2017-08-08T11:34:09.944Z,20064
2017-08-08T11:35:11.375Z,19936
2017-08-08T11:36:12.759Z,20064
2017-08-08T11:37:14.338Z,20256
2017-08-08T11:38:15.733Z,20512
2017-08-08T11:39:17.439Z,20960
2017-08-08T11:40:18.838Z,21760
2017-08-08T11:41:20.310Z,22944
2017-08-08T11:42:21.722Z,24480
2017-08-08T11:43:23.160Z,26464
2017-08-08T11:44:24.550Z,28768
2017-08-08T11:45:26.084Z,31104
2017-08-08T11:46:27.502Z,33184
2017-08-08T11:47:28.926Z,34912
2017-08-08T11:48:30.316Z,36128
2017-08-08T11:49:31.819Z,36800
2017-08-08T11:50:33.202Z,37280
2017-08-08T11:51:34.706Z,37760
2017-08-08T11:52:36.109Z,37536
2017-08-08T11:53:37.563Z,36224
2017-08-08T11:54:39.253Z,34144
2017-08-08T11:55:40.761Z,32192
2017-08-08T11:56:42.212Z,31104
2017-08-08T11:57:43.945Z,30944
2017-08-08T11:58:45.357Z,31072
2017-08-08T11:59:46.844Z,30592
2017-08-08T12:00:48.244Z,29600
2017-08-08T12:01:49.737Z,28384
2017-08-08T12:02:51.131Z,27136
2017-08-08T12:03:52.597Z,26176
2017-08-08T12:04:54.012Z,25888
2017-08-08T12:05:55.541Z,26016
2017-08-08T12:06:56.962Z,25920
2017-08-08T12:07:58.672Z,25536
2017-08-08T12:09:00.063Z,25216
2017-08-08T12:10:02.009Z,24768
2017-08-08T12:11:03.391Z,23840
2017-08-08T12:12:05.067Z,22272
2017-08-08T12:13:06.472Z,20320
2017-08-08T12:14:07.961Z,18752
2017-08-08T12:15:09.442Z,17664
2017-08-08T12:16:11.110Z,16820
2017-08-08T12:17:12.524Z,16300
2017-08-08T12:18:14.044Z,15780
2017-08-08T12:19:15.459Z,15252
2017-08-08T12:20:17.349Z,14440
2017-08-08T12:21:18.727Z,13816
2017-08-08T12:22:20.398Z,13448
2017-08-08T12:23:21.795Z,13412
2017-08-08T12:24:23.260Z,13716
2017-08-08T12:25:24.649Z,14152
2017-08-08T12:26:26.171Z,14712
2017-08-08T12:27:27.542Z,15352
2017-08-08T12:28:29.025Z,15980
2017-08-08T12:29:30.410Z,16312
2017-08-08T12:30:31.949Z,16648
2017-08-08T12:31:33.363Z,17192
2017-08-08T12:32:35.114Z,18720
2017-08-08T12:33:36.499Z,20992
2017-08-08T12:34:37.992Z,23648
2017-08-08T12:35:39.394Z,25856
2017-08-08T12:36:40.860Z,27424
2017-08-08T12:37:42.262Z,28672
2017-08-08T12:38:43.747Z,29856
2017-08-08T12:39:45.252Z,31648
2017-08-08T12:40:47.046Z,34688
2017-08-08T12:41:48.638Z,38976
2017-08-08T12:42:50.119Z,40896
2017-08-08T12:43:51.520Z,38816
2017-08-08T12:44:53.028Z,35168
2017-08-08T12:45:54.826Z,33728
2017-08-08T12:46:56.508Z,35072
2017-08-08T12:47:57.924Z,39552
2017-08-08T12:48:59.703Z,42304
2017-08-08T12:50:01.170Z,37664
2017-08-08T12:51:02.985Z,28480
2017-08-08T12:52:04.495Z,21760
2017-08-08T12:53:06.180Z,18112
2017-08-08T12:54:07.686Z,16012
2017-08-08T12:55:09.362Z,15292
2017-08-08T12:56:10.898Z,15284
2017-08-08T12:57:12.543Z,15068
2017-08-08T12:58:14.007Z,14548
2017-08-08T12:59:15.896Z,14128
2017-08-08T13:00:17.410Z,13784
2017-08-08T13:01:19.299Z,13704
2017-08-08T13:02:20.747Z,13728
2017-08-08T13:03:22.383Z,14124
2017-08-08T13:04:23.857Z,15500
2017-08-08T13:05:25.635Z,17056
2017-08-08T13:06:27.142Z,18720
2017-08-08T13:07:28.828Z,21312
2017-08-08T13:08:30.298Z,26368
2017-08-08T13:09:32.008Z,35008
2017-08-08T13:10:33.460Z,46688
2017-08-08T13:11:35.175Z,57376
2017-08-08T13:12:36.669Z,43648
2017-08-08T13:13:38.385Z,35552
2017-08-08T13:14:39.803Z,27552
2017-08-08T13:15:41.531Z,23744
2017-08-08T13:16:43.811Z,25408
2017-08-08T13:17:45.582Z,30880
2017-08-08T13:18:47.000Z,36768
2017-08-08T13:19:48.823Z,38208
2017-08-08T13:20:50.313Z,33888
2017-08-08T13:21:52.064Z,28704
2017-08-08T13:22:53.632Z,26496
2017-08-08T13:23:55.178Z,25600
2017-08-08T13:24:56.641Z,23744
2017-08-08T13:25:58.400Z,22752
2017-08-08T13:26:59.881Z,21184
2017-08-08T13:28:01.641Z,19040
2017-08-08T13:29:03.068Z,17212
2017-08-08T13:30:04.784Z,16020
2017-08-08T13:31:06.270Z,16140
2017-08-08T13:32:07.981Z,16612
2017-08-08T13:33:09.456Z,15756
2017-08-08T13:34:11.186Z,13464
2017-08-08T13:35:12.690Z,12028
2017-08-08T13:36:14.359Z,12228
2017-08-08T13:37:15.873Z,12212
2017-08-08T13:38:17.541Z,11252
2017-08-08T13:39:18.987Z,10112
2017-08-08T13:40:20.722Z,9188
2017-08-08T13:41:22.224Z,8628
2017-08-08T13:42:23.987Z,8084
2017-08-08T13:43:25.482Z,7312
2017-08-08T13:44:27.115Z,6472